sensor_id;sensor_type;location;lat;lon;timestamp;pressure;altitude;pressure_sealevel;temperature;humidity
69306;BME280;56427;51.580;4.656;2023-08-20T00:00:08;102102.34;;;19.08;75.66
69306;BME280;56427;51.580;4.656;2023-08-20T00:02:36;102099.06;;;19.05;75.43
69306;BME280;56427;51.580;4.656;2023-08-20T00:05:02;102096.34;;;19.06;75.24
69306;BME280;56427;51.580;4.656;2023-08-20T00:07:31;102104.78;;;18.97;75.87
69306;BME280;56427;51.580;4.656;2023-08-20T00:09:57;102104.50;;;19.02;75.90
69306;BME280;56427;51.580;4.656;2023-08-20T00:12:22;102117.84;;;19.13;75.25
69306;BME280;56427;51.580;4.656;2023-08-20T00:14:52;102125.63;;;19.14;75.61
69306;BME280;56427;51.580;4.656;2023-08-20T00:17:22;102125.97;;;19.23;75.25
69306;BME280;56427;51.580;4.656;2023-08-20T00:19:49;102126.72;;;19.25;75.29
69306;BME280;56427;51.580;4.656;2023-08-20T00:22:15;102128.22;;;19.29;74.86
69306;BME280;56427;51.580;4.656;2023-08-20T00:24:41;102134.28;;;19.44;74.58
69306;BME280;56427;51.580;4.656;2023-08-20T00:27:07;102139.56;;;19.44;73.98
69306;BME280;56427;51.580;4.656;2023-08-20T00:29:32;102143.31;;;19.39;74.02
69306;BME280;56427;51.580;4.656;2023-08-20T00:31:57;102151.03;;;19.43;74.12
69306;BME280;56427;51.580;4.656;2023-08-20T00:34:23;102152.91;;;19.40;74.49
69306;BME280;56427;51.580;4.656;2023-08-20T00:36:48;102157.59;;;19.35;74.15
69306;BME280;56427;51.580;4.656;2023-08-20T00:39:13;102161.75;;;19.39;73.85
69306;BME280;56427;51.580;4.656;2023-08-20T00:41:40;102168.69;;;19.40;73.63
69306;BME280;56427;51.580;4.656;2023-08-20T00:44:06;102171.69;;;19.49;73.79
69306;BME280;56427;51.580;4.656;2023-08-20T00:46:31;102161.19;;;19.34;73.72
69306;BME280;56427;51.580;4.656;2023-08-20T00:48:57;102164.53;;;19.51;73.65
69306;BME280;56427;51.580;4.656;2023-08-20T00:51:23;102169.41;;;19.57;72.91
69306;BME280;56427;51.580;4.656;2023-08-20T00:53:48;102166.03;;;19.55;73.72
69306;BME280;56427;51.580;4.656;2023-08-20T00:56:15;102177.41;;;19.55;73.46
69306;BME280;56427;51.580;4.656;2023-08-20T00:58:41;102167.84;;;19.40;74.42
69306;BME280;56427;51.580;4.656;2023-08-20T01:01:06;102162.94;;;19.48;73.51
69306;BME280;56427;51.580;4.656;2023-08-20T01:03:32;102169.84;;;19.36;74.09
69306;BME280;56427;51.580;4.656;2023-08-20T01:06:09;102169.19;;;19.33;74.04
69306;BME280;56427;51.580;4.656;2023-08-20T01:08:40;102168.91;;;19.23;74.65
69306;BME280;56427;51.580;4.656;2023-08-20T01:11:30;102170.63;;;19.24;74.88
69306;BME280;56427;51.580;4.656;2023-08-20T01:13:59;102169.97;;;19.21;75.07
69306;BME280;56427;51.580;4.656;2023-08-20T01:16:24;102163.56;;;19.25;75.03
69306;BME280;56427;51.580;4.656;2023-08-20T01:18:50;102168.91;;;19.23;74.51
69306;BME280;56427;51.580;4.656;2023-08-20T01:21:37;102168.63;;;19.28;74.77
69306;BME280;56427;51.580;4.656;2023-08-20T01:24:12;102175.88;;;19.24;75.08
69306;BME280;56427;51.580;4.656;2023-08-20T01:26:56;102182.38;;;19.19;75.03
69306;BME280;56427;51.580;4.656;2023-08-20T01:29:25;102183.59;;;19.13;75.02
69306;BME280;56427;51.580;4.656;2023-08-20T01:31:53;102184.38;;;18.86;76.69
69306;BME280;56427;51.580;4.656;2023-08-20T01:34:21;102187.34;;;19.09;75.96
69306;BME280;56427;51.580;4.656;2023-08-20T01:36:46;102185.50;;;19.11;75.45
69306;BME280;56427;51.580;4.656;2023-08-20T01:39:11;102193.66;;;19.06;nan
69306;BME280;56427;51.580;4.656;2023-08-20T01:41:37;102181.91;;;18.98;76.00
69306;BME280;56427;51.580;4.656;2023-08-20T01:44:03;102183.53;;;19.00;76.16
69306;BME280;56427;51.580;4.656;2023-08-20T01:46:28;102185.56;;;19.09;75.96
69306;BME280;56427;51.580;4.656;2023-08-20T01:48:53;102184.47;;;18.99;76.65
69306;BME280;56427;51.580;4.656;2023-08-20T01:51:19;102183.34;;;18.89;76.43
69306;BME280;56427;51.580;4.656;2023-08-20T01:53:44;102188.81;;;18.86;76.16
69306;BME280;56427;51.580;4.656;2023-08-20T01:56:13;102189.16;;;18.94;76.30
69306;BME280;56427;51.580;4.656;2023-08-20T01:58:38;102192.63;;;18.95;75.76
69306;BME280;56427;51.580;4.656;2023-08-20T02:01:03;102190.94;;;18.94;76.10
69306;BME280;56427;51.580;4.656;2023-08-20T02:03:29;102188.69;;;18.88;76.18
69306;BME280;56427;51.580;4.656;2023-08-20T02:05:54;102185.69;;;18.94;76.00
69306;BME280;56427;51.580;4.656;2023-08-20T02:08:20;102182.66;;;18.85;76.33
69306;BME280;56427;51.580;4.656;2023-08-20T02:10:45;102180.84;;;18.57;77.20
69306;BME280;56427;51.580;4.656;2023-08-20T02:13:11;102179.06;;;18.58;77.08
69306;BME280;56427;51.580;4.656;2023-08-20T02:15:36;102180.75;;;18.59;77.12
69306;BME280;56427;51.580;4.656;2023-08-20T02:18:01;102178.22;;;18.43;77.32
69306;BME280;56427;51.580;4.656;2023-08-20T02:20:27;102173.81;;;18.44;77.16
69306;BME280;56427;51.580;4.656;2023-08-20T02:22:53;102181.00;;;18.40;77.46
69306;BME280;56427;51.580;4.656;2023-08-20T02:25:18;102181.72;;;18.28;78.19
69306;BME280;56427;51.580;4.656;2023-08-20T02:27:44;102178.38;;;18.26;77.62
69306;BME280;56427;51.580;4.656;2023-08-20T02:30:10;102181.34;;;18.20;78.34
69306;BME280;56427;51.580;4.656;2023-08-20T02:32:38;102185.19;;;18.14;78.01
69306;BME280;56427;51.580;4.656;2023-08-20T02:35:04;102190.88;;;18.06;78.70
69306;BME280;56427;51.580;4.656;2023-08-20T02:37:31;102178.00;;;18.02;78.95
69306;BME280;56427;51.580;4.656;2023-08-20T02:39:56;102182.16;;;18.06;78.03
69306;BME280;56427;51.580;4.656;2023-08-20T02:42:22;102172.09;;;17.98;77.72
69306;BME280;56427;51.580;4.656;2023-08-20T02:44:47;102180.50;;;17.89;78.36
69306;BME280;56427;51.580;4.656;2023-08-20T02:47:12;102180.94;;;17.82;79.19
69306;BME280;56427;51.580;4.656;2023-08-20T02:49:38;102186.00;;;17.69;80.30
69306;BME280;56427;51.580;4.656;2023-08-20T02:52:03;102192.19;;;17.68;79.85
69306;BME280;56427;51.580;4.656;2023-08-20T02:54:29;102184.22;;;17.69;79.84
69306;BME280;56427;51.580;4.656;2023-08-20T02:56:57;102187.78;;;17.68;79.75
69306;BME280;56427;51.580;4.656;2023-08-20T02:59:23;102189.25;;;17.74;79.00
69306;BME280;56427;51.580;4.656;2023-08-20T03:01:48;102180.16;;;17.64;80.12
69306;BME280;56427;51.580;4.656;2023-08-20T03:04:14;102190.66;;;17.64;79.16
69306;BME280;56427;51.580;4.656;2023-08-20T03:06:39;102190.50;;;17.51;79.99
69306;BME280;56427;51.580;4.656;2023-08-20T03:09:04;102191.34;;;17.51;79.69
69306;BME280;56427;51.580;4.656;2023-08-20T03:11:31;102201.09;;;17.49;79.61
69306;BME280;56427;51.580;4.656;2023-08-20T03:13:56;102199.28;;;17.34;80.27
69306;BME280;56427;51.580;4.656;2023-08-20T03:16:21;102209.13;;;17.31;80.36
69306;BME280;56427;51.580;4.656;2023-08-20T03:18:47;102208.94;;;17.34;80.48
69306;BME280;56427;51.580;4.656;2023-08-20T03:21:13;102207.53;;;17.44;80.71
69306;BME280;56427;51.580;4.656;2023-08-20T03:23:38;102198.97;;;17.56;80.13
69306;BME280;56427;51.580;4.656;2023-08-20T03:26:04;102194.72;;;17.53;80.77
69306;BME280;56427;51.580;4.656;2023-08-20T03:28:29;102198.53;;;17.64;80.10
69306;BME280;56427;51.580;4.656;2023-08-20T03:30:54;102194.97;;;17.65;80.07
69306;BME280;56427;51.580;4.656;2023-08-20T03:33:20;102197.34;;;17.69;80.16
69306;BME280;56427;51.580;4.656;2023-08-20T03:35:48;102196.94;;;17.77;79.91
69306;BME280;56427;51.580;4.656;2023-08-20T03:38:13;102195.56;;;17.70;80.39
69306;BME280;56427;51.580;4.656;2023-08-20T03:40:39;102194.63;;;17.71;80.28
69306;BME280;56427;51.580;4.656;2023-08-20T03:43:04;102191.03;;;17.73;79.96
69306;BME280;56427;51.580;4.656;2023-08-20T03:45:30;102198.28;;;17.68;79.80
69306;BME280;56427;51.580;4.656;2023-08-20T03:47:55;102190.50;;;17.67;80.25
69306;BME280;56427;51.580;4.656;2023-08-20T03:50:21;102197.88;;;17.60;79.94
69306;BME280;56427;51.580;4.656;2023-08-20T03:52:46;102192.53;;;17.46;80.32
69306;BME280;56427;51.580;4.656;2023-08-20T03:55:12;102190.75;;;17.46;80.33
69306;BME280;56427;51.580;4.656;2023-08-20T03:57:37;102198.81;;;17.43;80.62
69306;BME280;56427;51.580;4.656;2023-08-20T04:00:02;102200.75;;;17.40;80.52
69306;BME280;56427;51.580;4.656;2023-08-20T04:02:29;102199.81;;;17.25;81.70
69306;BME280;56427;51.580;4.656;2023-08-20T04:04:54;102197.88;;;17.29;81.46
69306;BME280;56427;51.580;4.656;2023-08-20T04:07:22;102203.38;;;17.24;81.39
69306;BME280;56427;51.580;4.656;2023-08-20T04:09:47;102197.94;;;17.11;82.24
69306;BME280;56427;51.580;4.656;2023-08-20T04:12:12;102202.59;;;17.06;81.68
69306;BME280;56427;51.580;4.656;2023-08-20T04:14:38;102198.78;;;17.12;81.35
69306;BME280;56427;51.580;4.656;2023-08-20T04:17:03;102212.97;;;17.08;81.58
69306;BME280;56427;51.580;4.656;2023-08-20T04:19:29;102210.44;;;17.06;81.89
69306;BME280;56427;51.580;4.656;2023-08-20T04:21:54;102217.56;;;17.04;81.84
69306;BME280;56427;51.580;4.656;2023-08-20T04:24:20;102220.09;;;17.06;81.26
69306;BME280;56427;51.580;4.656;2023-08-20T04:26:45;102223.44;;;16.92;81.91
69306;BME280;56427;51.580;4.656;2023-08-20T04:29:11;102218.25;;;16.90;81.92
69306;BME280;56427;51.580;4.656;2023-08-20T04:31:36;102220.22;;;16.87;82.20
69306;BME280;56427;51.580;4.656;2023-08-20T04:34:01;102229.00;;;16.86;81.23
69306;BME280;56427;51.580;4.656;2023-08-20T04:36:27;102230.25;;;16.79;81.89
69306;BME280;56427;51.580;4.656;2023-08-20T04:38:52;102235.41;;;16.80;81.76
69306;BME280;56427;51.580;4.656;2023-08-20T04:41:17;102233.97;;;16.75;81.56
69306;BME280;56427;51.580;4.656;2023-08-20T04:43:43;102235.16;;;16.67;81.79
69306;BME280;56427;51.580;4.656;2023-08-20T04:46:08;102239.09;;;16.59;81.59
69306;BME280;56427;51.580;4.656;2023-08-20T04:48:33;102244.28;;;16.60;81.53
69306;BME280;56427;51.580;4.656;2023-08-20T04:50:59;102246.50;;;16.51;81.91
69306;BME280;56427;51.580;4.656;2023-08-20T04:53:25;102248.72;;;16.58;82.48
69306;BME280;56427;51.580;4.656;2023-08-20T04:55:51;102249.34;;;16.63;81.71
69306;BME280;56427;51.580;4.656;2023-08-20T04:58:16;102244.03;;;16.65;81.80
69306;BME280;56427;51.580;4.656;2023-08-20T05:00:42;102245.28;;;16.75;81.56
69306;BME280;56427;51.580;4.656;2023-08-20T05:03:07;102241.50;;;16.81;81.55
69306;BME280;56427;51.580;4.656;2023-08-20T05:05:33;102246.84;;;17.28;80.67
69306;BME280;56427;51.580;4.656;2023-08-20T05:07:58;102254.09;;;17.56;79.18
69306;BME280;56427;51.580;4.656;2023-08-20T05:10:23;102254.03;;;17.73;77.84
69306;BME280;56427;51.580;4.656;2023-08-20T05:12:49;102254.66;;;18.24;76.66
69306;BME280;56427;51.580;4.656;2023-08-20T05:15:14;102254.25;;;19.33;73.24
69306;BME280;56427;51.580;4.656;2023-08-20T05:17:40;102252.13;;;20.61;68.33
69306;BME280;56427;51.580;4.656;2023-08-20T05:20:05;102248.19;;;21.43;65.23
69306;BME280;56427;51.580;4.656;2023-08-20T05:22:31;102251.25;;;21.73;63.80
69306;BME280;56427;51.580;4.656;2023-08-20T05:24:56;102249.13;;;22.73;60.11
69306;BME280;56427;51.580;4.656;2023-08-20T05:27:22;102251.28;;;22.68;59.43
69306;BME280;56427;51.580;4.656;2023-08-20T05:29:47;102254.94;;;23.23;58.71
69306;BME280;56427;51.580;4.656;2023-08-20T05:32:12;102262.34;;;23.74;57.52
69306;BME280;56427;51.580;4.656;2023-08-20T05:34:38;102257.53;;;23.79;57.15
69306;BME280;56427;51.580;4.656;2023-08-20T05:37:03;102264.13;;;23.84;57.18
69306;BME280;56427;51.580;4.656;2023-08-20T05:39:42;102257.22;;;23.38;57.88
69306;BME280;56427;51.580;4.656;2023-08-20T05:42:08;102259.84;;;23.50;57.67
69306;BME280;56427;51.580;4.656;2023-08-20T05:44:33;102263.34;;;24.05;57.28
69306;BME280;56427;51.580;4.656;2023-08-20T05:47:01;102259.84;;;24.78;54.63
69306;BME280;56427;51.580;4.656;2023-08-20T05:49:27;102257.13;;;24.68;54.69
69306;BME280;56427;51.580;4.656;2023-08-20T05:51:52;102258.25;;;24.96;54.84
69306;BME280;56427;51.580;4.656;2023-08-20T05:54:17;102255.94;;;25.63;53.37
69306;BME280;56427;51.580;4.656;2023-08-20T05:56:43;102256.16;;;26.19;51.77
69306;BME280;56427;51.580;4.656;2023-08-20T05:59:08;102258.78;;;27.05;48.77
69306;BME280;56427;51.580;4.656;2023-08-20T06:01:34;102258.72;;;25.42;53.33
69306;BME280;56427;51.580;4.656;2023-08-20T06:03:59;102264.25;;;26.08;52.14
69306;BME280;56427;51.580;4.656;2023-08-20T06:06:26;102262.72;;;25.96;51.37
69306;BME280;56427;51.580;4.656;2023-08-20T06:08:51;102265.50;;;26.52;51.26
69306;BME280;56427;51.580;4.656;2023-08-20T06:11:17;102271.69;;;27.00;49.93
69306;BME280;56427;51.580;4.656;2023-08-20T06:13:42;102267.31;;;26.61;49.98
69306;BME280;56427;51.580;4.656;2023-08-20T06:16:07;102269.03;;;26.53;49.72
69306;BME280;56427;51.580;4.656;2023-08-20T06:18:33;102264.47;;;27.92;46.81
69306;BME280;56427;51.580;4.656;2023-08-20T06:20:58;102267.53;;;26.87;49.03
69306;BME280;56427;51.580;4.656;2023-08-20T06:23:24;102263.88;;;26.03;51.07
69306;BME280;56427;51.580;4.656;2023-08-20T06:25:52;102263.31;;;26.09;50.71
69306;BME280;56427;51.580;4.656;2023-08-20T06:28:17;102260.53;;;26.86;49.26
69306;BME280;56427;51.580;4.656;2023-08-20T06:30:44;102268.94;;;28.45;46.19
69306;BME280;56427;51.580;4.656;2023-08-20T06:33:10;102262.78;;;27.74;47.06
69306;BME280;56427;51.580;4.656;2023-08-20T06:35:35;102269.31;;;28.15;46.71
69306;BME280;56427;51.580;4.656;2023-08-20T06:38:00;102267.44;;;26.79;48.42
69306;BME280;56427;51.580;4.656;2023-08-20T06:40:26;102270.84;;;26.33;50.04
69306;BME280;56427;51.580;4.656;2023-08-20T06:42:51;102277.91;;;26.81;48.87
69306;BME280;56427;51.580;4.656;2023-08-20T06:45:16;102267.09;;;26.16;51.14
69306;BME280;56427;51.580;4.656;2023-08-20T06:47:42;102275.50;;;26.41;49.56
69306;BME280;56427;51.580;4.656;2023-08-20T06:50:07;102263.88;;;26.22;50.29
69306;BME280;56427;51.580;4.656;2023-08-20T06:52:33;102267.44;;;26.70;49.54
69306;BME280;56427;51.580;4.656;2023-08-20T06:54:58;102274.50;;;26.42;50.54
69306;BME280;56427;51.580;4.656;2023-08-20T06:57:23;102275.16;;;26.63;50.07
69306;BME280;56427;51.580;4.656;2023-08-20T06:59:49;102270.97;;;26.60;49.21
69306;BME280;56427;51.580;4.656;2023-08-20T07:02:14;102268.75;;;26.36;49.56
69306;BME280;56427;51.580;4.656;2023-08-20T07:04:39;102274.44;;;26.80;49.58
69306;BME280;56427;51.580;4.656;2023-08-20T07:07:05;102271.28;;;27.32;48.21
69306;BME280;56427;51.580;4.656;2023-08-20T07:09:30;102280.81;;;27.62;47.63
69306;BME280;56427;51.580;4.656;2023-08-20T07:11:56;102285.88;;;27.83;46.42
69306;BME280;56427;51.580;4.656;2023-08-20T07:14:21;102283.16;;;26.63;48.13
69306;BME280;56427;51.580;4.656;2023-08-20T07:16:47;102283.75;;;26.94;47.50
69306;BME280;56427;51.580;4.656;2023-08-20T07:19:12;102289.06;;;26.18;49.52
69306;BME280;56427;51.580;4.656;2023-08-20T07:21:37;102292.41;;;26.20;48.48
69306;BME280;56427;51.580;4.656;2023-08-20T07:24:03;102301.38;;;26.00;49.18
69306;BME280;56427;51.580;4.656;2023-08-20T07:26:29;102306.13;;;26.64;48.51
69306;BME280;56427;51.580;4.656;2023-08-20T07:28:55;102290.03;;;27.03;47.98
69306;BME280;56427;51.580;4.656;2023-08-20T07:31:23;102297.75;;;27.43;46.82
69306;BME280;56427;51.580;4.656;2023-08-20T07:33:50;102298.88;;;26.56;47.99
69306;BME280;56427;51.580;4.656;2023-08-20T07:36:16;102297.41;;;26.81;47.91
69306;BME280;56427;51.580;4.656;2023-08-20T07:38:43;102295.34;;;27.22;46.84
69306;BME280;56427;51.580;4.656;2023-08-20T07:41:09;102294.97;;;27.72;46.16
69306;BME280;56427;51.580;4.656;2023-08-20T07:43:37;102302.59;;;27.85;45.91
69306;BME280;56427;51.580;4.656;2023-08-20T07:46:03;102299.31;;;27.91;45.28
69306;BME280;56427;51.580;4.656;2023-08-20T07:48:29;102307.84;;;28.30;44.78
69306;BME280;56427;51.580;4.656;2023-08-20T07:50:54;102309.22;;;27.53;45.51
69306;BME280;56427;51.580;4.656;2023-08-20T07:53:19;102309.84;;;28.10;44.89
69306;BME280;56427;51.580;4.656;2023-08-20T07:55:45;102309.56;;;28.21;44.81
69306;BME280;56427;51.580;4.656;2023-08-20T07:58:13;102307.06;;;28.20;44.60
69306;BME280;56427;51.580;4.656;2023-08-20T08:00:38;102309.28;;;28.07;44.86
69306;BME280;56427;51.580;4.656;2023-08-20T08:03:03;102312.69;;;27.26;45.96
69306;BME280;56427;51.580;4.656;2023-08-20T08:05:29;102309.44;;;28.05;43.28
69306;BME280;56427;51.580;4.656;2023-08-20T08:07:54;102312.28;;;28.04;44.22
69306;BME280;56427;51.580;4.656;2023-08-20T08:10:20;102314.47;;;27.73;44.69
69306;BME280;56427;51.580;4.656;2023-08-20T08:12:45;102323.56;;;28.33;44.45
69306;BME280;56427;51.580;4.656;2023-08-20T08:15:11;102318.44;;;28.04;45.81
69306;BME280;56427;51.580;4.656;2023-08-20T08:17:37;102321.91;;;28.32;45.90
69306;BME280;56427;51.580;4.656;2023-08-20T08:20:02;102313.31;;;27.75;46.48
69306;BME280;56427;51.580;4.656;2023-08-20T08:22:28;102307.28;;;27.73;45.78
69306;BME280;56427;51.580;4.656;2023-08-20T08:24:53;102311.78;;;27.90;45.68
69306;BME280;56427;51.580;4.656;2023-08-20T08:27:19;102319.78;;;28.88;43.98
69306;BME280;56427;51.580;4.656;2023-08-20T08:29:44;102319.63;;;28.89;43.40
69306;BME280;56427;51.580;4.656;2023-08-20T08:32:10;102321.94;;;28.58;43.67
69306;BME280;56427;51.580;4.656;2023-08-20T08:34:35;102323.69;;;28.14;43.48
69306;BME280;56427;51.580;4.656;2023-08-20T08:37:01;102323.13;;;27.47;44.54
69306;BME280;56427;51.580;4.656;2023-08-20T08:39:26;102329.44;;;27.19;45.10
69306;BME280;56427;51.580;4.656;2023-08-20T08:41:55;102331.34;;;28.44;43.83
69306;BME280;56427;51.580;4.656;2023-08-20T08:44:24;102333.44;;;28.59;42.98
69306;BME280;56427;51.580;4.656;2023-08-20T08:46:50;102329.47;;;28.89;43.38
69306;BME280;56427;51.580;4.656;2023-08-20T08:49:16;102334.25;;;28.77;41.83
69306;BME280;56427;51.580;4.656;2023-08-20T08:51:44;102338.84;;;29.11;42.80
69306;BME280;56427;51.580;4.656;2023-08-20T08:54:12;102337.53;;;28.71;42.81
69306;BME280;56427;51.580;4.656;2023-08-20T08:56:37;102334.97;;;29.05;43.25
69306;BME280;56427;51.580;4.656;2023-08-20T08:59:02;102339.13;;;29.76;42.84
69306;BME280;56427;51.580;4.656;2023-08-20T09:01:28;102335.72;;;29.58;42.24
69306;BME280;56427;51.580;4.656;2023-08-20T09:03:54;102331.41;;;29.73;42.35
69306;BME280;56427;51.580;4.656;2023-08-20T09:06:19;102337.34;;;29.16;41.37
69306;BME280;56427;51.580;4.656;2023-08-20T09:08:48;102335.38;;;29.18;42.17
69306;BME280;56427;51.580;4.656;2023-08-20T09:11:13;102338.19;;;28.47;41.29
69306;BME280;56427;51.580;4.656;2023-08-20T09:13:40;102348.28;;;29.31;40.50
69306;BME280;56427;51.580;4.656;2023-08-20T09:16:10;102347.94;;;29.26;42.21
69306;BME280;56427;51.580;4.656;2023-08-20T09:18:40;102345.13;;;29.01;41.86
69306;BME280;56427;51.580;4.656;2023-08-20T09:21:07;102347.84;;;29.10;42.91
69306;BME280;56427;51.580;4.656;2023-08-20T09:23:34;102347.22;;;28.72;40.53
69306;BME280;56427;51.580;4.656;2023-08-20T09:26:01;102341.38;;;28.15;42.47
69306;BME280;56427;51.580;4.656;2023-08-20T09:28:31;102346.09;;;28.92;40.24
69306;BME280;56427;51.580;4.656;2023-08-20T09:31:05;102345.31;;;29.08;41.14
69306;BME280;56427;51.580;4.656;2023-08-20T09:33:30;102337.91;;;29.62;41.43
69306;BME280;56427;51.580;4.656;2023-08-20T09:35:56;102342.09;;;29.73;41.22
69306;BME280;56427;51.580;4.656;2023-08-20T09:38:23;102341.19;;;30.06;41.60
69306;BME280;56427;51.580;4.656;2023-08-20T09:40:50;102348.94;;;30.50;40.82
69306;BME280;56427;51.580;4.656;2023-08-20T09:43:17;102347.66;;;29.37;42.69
69306;BME280;56427;51.580;4.656;2023-08-20T09:45:43;102335.31;;;29.95;41.60
69306;BME280;56427;51.580;4.656;2023-08-20T09:48:10;102347.16;;;29.84;40.15
69306;BME280;56427;51.580;4.656;2023-08-20T09:50:37;102344.28;;;29.35;40.57
69306;BME280;56427;51.580;4.656;2023-08-20T09:53:12;102352.22;;;29.11;42.27
69306;BME280;56427;51.580;4.656;2023-08-20T09:55:43;102345.94;;;29.28;42.39
69306;BME280;56427;51.580;4.656;2023-08-20T09:58:10;102346.97;;;28.83;42.52
69306;BME280;56427;51.580;4.656;2023-08-20T10:00:37;102339.66;;;29.88;41.00
69306;BME280;56427;51.580;4.656;2023-08-20T10:03:03;102341.09;;;29.32;40.61
69306;BME280;56427;51.580;4.656;2023-08-20T10:05:29;102344.19;;;29.11;41.44
69306;BME280;56427;51.580;4.656;2023-08-20T10:07:57;102348.22;;;29.99;40.13
69306;BME280;56427;51.580;4.656;2023-08-20T10:10:24;102346.97;;;29.35;39.39
69306;BME280;56427;51.580;4.656;2023-08-20T10:12:51;102342.59;;;29.26;41.08
69306;BME280;56427;51.580;4.656;2023-08-20T10:15:17;102337.56;;;29.65;39.08
69306;BME280;56427;51.580;4.656;2023-08-20T10:17:44;102348.63;;;29.70;39.35
69306;BME280;56427;51.580;4.656;2023-08-20T10:20:12;102347.19;;;28.90;39.78
69306;BME280;56427;51.580;4.656;2023-08-20T10:22:42;102338.03;;;29.52;39.57
69306;BME280;56427;51.580;4.656;2023-08-20T10:25:16;102339.50;;;31.11;38.33
69306;BME280;56427;51.580;4.656;2023-08-20T10:27:47;102344.78;;;29.73;40.17
69306;BME280;56427;51.580;4.656;2023-08-20T10:30:25;102337.28;;;29.68;37.50
69306;BME280;56427;51.580;4.656;2023-08-20T10:32:51;102349.22;;;28.70;40.12
69306;BME280;56427;51.580;4.656;2023-08-20T10:35:28;102342.53;;;28.12;37.73
69306;BME280;56427;51.580;4.656;2023-08-20T10:38:07;102344.78;;;28.79;40.68
69306;BME280;56427;51.580;4.656;2023-08-20T10:40:51;102340.53;;;29.20;39.11
69306;BME280;56427;51.580;4.656;2023-08-20T10:48:56;102343.63;;;29.67;37.34
69306;BME280;56427;51.580;4.656;2023-08-20T10:51:29;102336.22;;;29.27;36.51
69306;BME280;56427;51.580;4.656;2023-08-20T10:56:38;102337.56;;;29.23;39.10
69306;BME280;56427;51.580;4.656;2023-08-20T10:59:07;102328.59;;;28.98;38.89
69306;BME280;56427;51.580;4.656;2023-08-20T11:01:34;102325.13;;;28.88;39.57
69306;BME280;56427;51.580;4.656;2023-08-20T11:04:00;102335.38;;;29.18;38.72
69306;BME280;56427;51.580;4.656;2023-08-20T11:06:30;102326.75;;;29.41;39.14
69306;BME280;56427;51.580;4.656;2023-08-20T11:08:57;102331.25;;;29.32;39.97
69306;BME280;56427;51.580;4.656;2023-08-20T11:11:23;102328.78;;;29.39;40.69
69306;BME280;56427;51.580;4.656;2023-08-20T11:13:49;102323.06;;;28.99;38.65
69306;BME280;56427;51.580;4.656;2023-08-20T11:16:14;102313.63;;;27.72;40.08
69306;BME280;56427;51.580;4.656;2023-08-20T11:18:39;102332.28;;;28.79;40.63
69306;BME280;56427;51.580;4.656;2023-08-20T11:21:05;102307.84;;;28.30;39.75
69306;BME280;56427;51.580;4.656;2023-08-20T11:23:31;102305.16;;;28.92;40.41
69306;BME280;56427;51.580;4.656;2023-08-20T11:25:57;102308.47;;;29.20;40.33
69306;BME280;56427;51.580;4.656;2023-08-20T11:28:22;102306.59;;;29.12;39.07
69306;BME280;56427;51.580;4.656;2023-08-20T11:30:49;102305.78;;;27.06;43.26
69306;BME280;56427;51.580;4.656;2023-08-20T11:33:16;102296.91;;;26.10;43.57
69306;BME280;56427;51.580;4.656;2023-08-20T11:35:42;102293.41;;;27.05;43.64
69306;BME280;56427;51.580;4.656;2023-08-20T11:38:09;102295.41;;;28.03;40.83
69306;BME280;56427;51.580;4.656;2023-08-20T11:40:35;102288.00;;;27.97;41.52
69306;BME280;56427;51.580;4.656;2023-08-20T11:43:01;102287.41;;;28.39;40.98
69306;BME280;56427;51.580;4.656;2023-08-20T11:45:27;102289.72;;;28.60;42.12
69306;BME280;56427;51.580;4.656;2023-08-20T11:47:56;102283.38;;;27.26;41.90
69306;BME280;56427;51.580;4.656;2023-08-20T11:50:23;102281.16;;;27.49;43.18
69306;BME280;56427;51.580;4.656;2023-08-20T11:52:48;102287.59;;;28.28;41.09
69306;BME280;56427;51.580;4.656;2023-08-20T11:55:14;102286.34;;;28.84;38.99
69306;BME280;56427;51.580;4.656;2023-08-20T11:57:39;102286.69;;;28.81;39.71
69306;BME280;56427;51.580;4.656;2023-08-20T12:00:06;102290.13;;;29.33;40.43
69306;BME280;56427;51.580;4.656;2023-08-20T12:02:40;102287.56;;;28.63;40.73
69306;BME280;56427;51.580;4.656;2023-08-20T12:05:07;102286.53;;;29.16;40.62
69306;BME280;56427;51.580;4.656;2023-08-20T12:07:32;102287.16;;;28.76;40.09
69306;BME280;56427;51.580;4.656;2023-08-20T12:09:57;102290.22;;;29.15;39.54
69306;BME280;56427;51.580;4.656;2023-08-20T12:12:23;102294.88;;;27.82;40.67
69306;BME280;56427;51.580;4.656;2023-08-20T12:14:48;102292.25;;;28.87;42.79
69306;BME280;56427;51.580;4.656;2023-08-20T12:17:20;102287.03;;;27.98;43.25
69306;BME280;56427;51.580;4.656;2023-08-20T12:19:46;102294.31;;;28.93;41.71
69306;BME280;56427;51.580;4.656;2023-08-20T12:22:11;102292.50;;;29.36;40.71
69306;BME280;56427;51.580;4.656;2023-08-20T12:24:38;102283.75;;;29.68;39.14
69306;BME280;56427;51.580;4.656;2023-08-20T12:27:03;102285.59;;;29.76;38.94
69306;BME280;56427;51.580;4.656;2023-08-20T12:29:29;102291.88;;;28.56;43.42
69306;BME280;56427;51.580;4.656;2023-08-20T12:31:54;102286.19;;;28.33;41.18
69306;BME280;56427;51.580;4.656;2023-08-20T12:34:20;102284.31;;;29.03;41.86
69306;BME280;56427;51.580;4.656;2023-08-20T12:36:48;102284.63;;;28.92;40.26
69306;BME280;56427;51.580;4.656;2023-08-20T12:39:13;102283.06;;;29.58;38.43
69306;BME280;56427;51.580;4.656;2023-08-20T12:41:39;102276.09;;;29.73;38.71
69306;BME280;56427;51.580;4.656;2023-08-20T12:44:05;102277.53;;;29.51;39.50
69306;BME280;56427;51.580;4.656;2023-08-20T12:46:31;102271.09;;;30.35;40.25
69306;BME280;56427;51.580;4.656;2023-08-20T12:48:56;102281.63;;;30.53;38.81
69306;BME280;56427;51.580;4.656;2023-08-20T12:51:21;102271.44;;;30.32;38.26
69306;BME280;56427;51.580;4.656;2023-08-20T12:53:47;102267.81;;;29.08;40.33